Luverne, MN

5:23 AM CDT on October 23, 2014 (GMT -0500)
Foss | Change Station
CLOSE
Current Station
Airport
Location: Sioux Falls,
Elevation: 1427 ft
Nearby Weather Stations
Active Advisory: Dense Fog Advisory

Elev 1427 ft 43.58 °N, 96.75 °W | Updated 27 minutes ago

Fog
Fog
45 °F
Feels Like 45 °F
N
0
Wind Variable Wind from North

Today
High -- | Low -- °F
--% Chance of Precip.
Yesterday
High -- | Low -- °F
Precip. -- in
7:49 AM 6:28 PM
Waning Crescent, 0% visible
Pressure 30.02 in
Visibility 0.1 miles
Clouds
Dew Point 45 °F
Humidity 100%
Rainfall 0.00 in
Snow Depth Not available.
UV Not available.
Pollen 1.50 out of 12
Air Quality Not available.
Flu Activity Sporadic
METAR KFSD 230956Z 00000KT 1/16SM R03/1200FT FG VV002 07/07 A3001 RMK AO2 SLP166 T00720072

More Conditions Fewer Conditions

Pressure 30.02 in
Visibility 0.1 miles
Clouds
Dew Point 45 °F
Humidity 100%
Rainfall 0.00 in
Snow Depth Not available.
UV Not available.
Pollen 1.50 out of 12
Air Quality Not available.
Flu Activity Sporadic
METAR KFSD 230956Z 00000KT 1/16SM R03/1200FT FG VV002 07/07 A3001 RMK AO2 SLP166 T00720072

More Conditions Fewer Conditions

10-Day Weather Forecast

Almanac

Astronomy

Oct. 23, 2014 Rise Set
Actual Time 7:49 AM CDT 6:28 PM CDT
Civil Twilight 7:19 AM CDT 6:57 PM CDT
Nautical Twilight 6:46 AM CDT 7:31 PM CDT
Astronomical Twilight 6:13 AM CDT 8:04 PM CDT
Moon 7:29 AM CDT 6:30 PM CDT
Length of Visible Light 11h 38m
Length of Day
10h 39m
Tomorrow will be 2m 47s shorter.
Waning Crescent, 0% of the Moon is Illuminated
Today
Waning Crescent
Oct 23
New
Oct 30
First Quarter
Nov 6
Full
Nov 14
Last Quarter

Today's Extremes

State Highs State Lows

Community

WunderPhotos

Upload Photos

1,764,202 photos uploaded!

Nearby

Snow Depth

Station Depth Elevation
No new snow has been reported.

Earthquake Activity

City Distance Mag. Time & Date
No recent earthquake activity has been reported nearby.
Minimum magnitude displayed is 2.5.

Coastal Water Temperatures

Place Temperature
No Stations Reporting

Nearby Weather Stations